sensor_id;sensor_type;location;lat;lon;timestamp;P1;P2;P0
64570;PMS5003;61095;52.454;16.948;2023-07-09T06:02:51;3.00;3.00;0.00
64570;PMS5003;61095;52.454;16.948;2023-07-09T06:07:51;1.67;1.67;0.00
64570;PMS5003;61095;52.454;16.948;2023-07-09T06:12:52;3.00;2.00;0.00
64570;PMS5003;61095;52.454;16.948;2023-07-09T06:17:53;3.00;1.00;0.00
64570;PMS5003;61095;52.454;16.948;2023-07-09T06:22:54;2.67;1.67;0.00
64570;PMS5003;61095;52.454;16.948;2023-07-09T06:27:54;2.00;1.00;0.00
64570;PMS5003;61095;52.454;16.948;2023-07-09T06:32:56;1.33;1.33;0.00
64570;PMS5003;61095;52.454;16.948;2023-07-09T06:37:56;2.00;2.00;0.00
64570;PMS5003;61095;52.454;16.948;2023-07-09T06:42:56;2.00;2.00;0.00
64570;PMS5003;61095;52.454;16.948;2023-07-09T06:47:58;2.00;2.00;0.00
64570;PMS5003;61095;52.454;16.948;2023-07-09T06:52:59;1.33;1.33;0.00
64570;PMS5003;61095;52.454;16.948;2023-07-09T06:57:59;0.00;0.00;0.00
64570;PMS5003;61095;52.454;16.948;2023-07-09T07:03:01;1.67;1.00;0.00
64570;PMS5003;61095;52.454;16.948;2023-07-09T07:08:02;2.00;1.00;0.00
64570;PMS5003;61095;52.454;16.948;2023-07-09T07:13:03;1.67;1.67;0.00
64570;PMS5003;61095;52.454;16.948;2023-07-09T07:18:05;1.00;1.00;0.00
64570;PMS5003;61095;52.454;16.948;2023-07-09T07:23:06;2.00;2.00;0.00
64570;PMS5003;61095;52.454;16.948;2023-07-09T07:28:07;2.00;2.00;0.00
64570;PMS5003;61095;52.454;16.948;2023-07-09T07:33:08;1.00;1.00;0.00
64570;PMS5003;61095;52.454;16.948;2023-07-09T07:38:09;1.00;1.00;0.00
64570;PMS5003;61095;52.454;16.948;2023-07-09T07:43:10;1.00;1.00;0.00
64570;PMS5003;61095;52.454;16.948;2023-07-09T07:48:12;1.00;1.00;0.00
64570;PMS5003;61095;52.454;16.948;2023-07-09T07:53:12;2.00;2.00;0.00
64570;PMS5003;61095;52.454;16.948;2023-07-09T07:58:13;2.00;1.00;0.00
64570;PMS5003;61095;52.454;16.948;2023-07-09T08:03:15;3.33;3.00;0.00
64570;PMS5003;61095;52.454;16.948;2023-07-09T08:08:15;2.00;2.00;0.00
64570;PMS5003;61095;52.454;16.948;2023-07-09T08:13:15;2.00;2.00;0.00
64570;PMS5003;61095;52.454;16.948;2023-07-09T08:18:17;2.00;2.00;0.00
64570;PMS5003;61095;52.454;16.948;2023-07-09T08:23:17;3.00;3.00;0.00
64570;PMS5003;61095;52.454;16.948;2023-07-09T08:28:18;3.00;3.00;0.00
64570;PMS5003;61095;52.454;16.948;2023-07-09T08:33:20;2.00;2.00;0.00
64570;PMS5003;61095;52.454;16.948;2023-07-09T08:38:21;4.00;4.00;0.00
64570;PMS5003;61095;52.454;16.948;2023-07-09T08:43:25;2.00;2.00;0.00
64570;PMS5003;61095;52.454;16.948;2023-07-09T08:48:35;3.33;3.00;0.00
64570;PMS5003;61095;52.454;16.948;2023-07-09T08:53:42;3.00;3.00;0.00
64570;PMS5003;61095;52.454;16.948;2023-07-09T08:58:49;3.33;3.33;0.00
64570;PMS5003;61095;52.454;16.948;2023-07-09T09:03:54;3.00;3.00;0.00
64570;PMS5003;61095;52.454;16.948;2023-07-09T09:09:02;3.00;2.33;0.00
64570;PMS5003;61095;52.454;16.948;2023-07-09T09:14:23;3.00;3.00;0.33
64570;PMS5003;61095;52.454;16.948;2023-07-09T09:19:31;3.33;2.33;0.00
64570;PMS5003;61095;52.454;16.948;2023-07-09T09:24:34;2.00;2.00;0.00
64570;PMS5003;61095;52.454;16.948;2023-07-09T09:29:36;3.00;3.00;1.00
64570;PMS5003;61095;52.454;16.948;2023-07-09T09:34:38;2.33;2.33;1.00
64570;PMS5003;61095;52.454;16.948;2023-07-09T09:39:38;2.33;2.33;1.00
64570;PMS5003;61095;52.454;16.948;2023-07-09T09:44:43;3.00;3.00;0.00
64570;PMS5003;61095;52.454;16.948;2023-07-09T09:49:46;4.00;4.00;0.00
64570;PMS5003;61095;52.454;16.948;2023-07-09T09:54:48;3.00;3.00;0.00
64570;PMS5003;61095;52.454;16.948;2023-07-09T09:59:53;1.33;1.00;0.00
64570;PMS5003;61095;52.454;16.948;2023-07-09T10:04:55;3.00;2.00;0.00
64570;PMS5003;61095;52.454;16.948;2023-07-09T10:09:56;2.00;2.00;0.00
64570;PMS5003;61095;52.454;16.948;2023-07-09T10:14:58;2.00;2.00;0.00
64570;PMS5003;61095;52.454;16.948;2023-07-09T10:20:07;3.00;3.00;0.00
64570;PMS5003;61095;52.454;16.948;2023-07-09T10:25:32;4.00;3.00;0.00
64570;PMS5003;61095;52.454;16.948;2023-07-09T10:30:39;3.00;3.00;0.00
64570;PMS5003;61095;52.454;16.948;2023-07-09T10:35:51;2.00;2.00;0.00
64570;PMS5003;61095;52.454;16.948;2023-07-09T10:41:00;2.33;2.33;0.00
64570;PMS5003;61095;52.454;16.948;2023-07-09T10:46:05;1.67;1.67;0.00
64570;PMS5003;61095;52.454;16.948;2023-07-09T10:51:17;1.00;0.00;0.00
64570;PMS5003;61095;52.454;16.948;2023-07-09T10:56:24;1.00;0.00;0.00
64570;PMS5003;61095;52.454;16.948;2023-07-09T11:01:28;1.00;0.00;0.00
64570;PMS5003;61095;52.454;16.948;2023-07-09T11:06:34;3.67;3.33;0.00
64570;PMS5003;61095;52.454;16.948;2023-07-09T11:11:39;2.00;2.00;0.00
64570;PMS5003;61095;52.454;16.948;2023-07-09T11:16:43;2.00;2.00;0.00
64570;PMS5003;61095;52.454;16.948;2023-07-09T11:21:55;2.00;1.00;0.00
64570;PMS5003;61095;52.454;16.948;2023-07-09T11:26:58;2.00;0.00;0.00
64570;PMS5003;61095;52.454;16.948;2023-07-09T11:32:07;2.00;0.67;0.00
64570;PMS5003;61095;52.454;16.948;2023-07-09T11:37:11;1.67;0.00;0.00
64570;PMS5003;61095;52.454;16.948;2023-07-09T11:42:25;1.00;0.00;0.00
64570;PMS5003;61095;52.454;16.948;2023-07-09T11:47:29;1.00;0.00;0.00
64570;PMS5003;61095;52.454;16.948;2023-07-09T11:52:36;1.00;1.00;0.00
64570;PMS5003;61095;52.454;16.948;2023-07-09T11:57:41;1.00;1.00;0.00
64570;PMS5003;61095;52.454;16.948;2023-07-09T12:02:41;1.00;1.00;0.00
64570;PMS5003;61095;52.454;16.948;2023-07-09T12:07:43;2.33;2.33;0.00
64570;PMS5003;61095;52.454;16.948;2023-07-09T12:12:44;3.67;3.67;0.00
64570;PMS5003;61095;52.454;16.948;2023-07-09T12:17:52;3.67;3.00;0.00
64570;PMS5003;61095;52.454;16.948;2023-07-09T12:22:54;2.00;2.00;0.00
64570;PMS5003;61095;52.454;16.948;2023-07-09T12:27:55;1.33;1.33;0.00
64570;PMS5003;61095;52.454;16.948;2023-07-09T12:32:58;1.00;1.00;0.00
64570;PMS5003;61095;52.454;16.948;2023-07-09T12:38:03;2.00;2.00;0.00
64570;PMS5003;61095;52.454;16.948;2023-07-09T12:43:16;2.33;2.00;1.00
64570;PMS5003;61095;52.454;16.948;2023-07-09T12:48:23;1.00;0.00;0.00
64570;PMS5003;61095;52.454;16.948;2023-07-09T12:53:28;1.00;1.00;0.00
64570;PMS5003;61095;52.454;16.948;2023-07-09T12:58:29;2.00;2.00;0.00
64570;PMS5003;61095;52.454;16.948;2023-07-09T13:03:32;1.00;1.00;0.00
64570;PMS5003;61095;52.454;16.948;2023-07-09T13:08:40;0.00;0.00;0.00
64570;PMS5003;61095;52.454;16.948;2023-07-09T13:13:41;0.00;0.00;0.00
64570;PMS5003;61095;52.454;16.948;2023-07-09T13:18:52;0.00;0.00;0.00
64570;PMS5003;61095;52.454;16.948;2023-07-09T13:23:54;0.00;0.00;0.00
64570;PMS5003;61095;52.454;16.948;2023-07-09T13:28:55;1.00;1.00;0.00
64570;PMS5003;61095;52.454;16.948;2023-07-09T13:33:56;4.33;4.33;0.33
64570;PMS5003;61095;52.454;16.948;2023-07-09T13:39:00;6.00;6.00;4.00
64570;PMS5003;61095;52.454;16.948;2023-07-09T13:44:00;3.00;3.00;1.00
64570;PMS5003;61095;52.454;16.948;2023-07-09T13:49:01;1.00;1.00;0.00
64570;PMS5003;61095;52.454;16.948;2023-07-09T13:54:06;1.00;1.00;0.00
64570;PMS5003;61095;52.454;16.948;2023-07-09T13:59:14;1.00;1.00;0.00
64570;PMS5003;61095;52.454;16.948;2023-07-09T14:04:16;1.00;1.00;0.00
64570;PMS5003;61095;52.454;16.948;2023-07-09T14:09:19;0.00;0.00;0.00
64570;PMS5003;61095;52.454;16.948;2023-07-09T14:14:21;1.00;1.00;0.00
64570;PMS5003;61095;52.454;16.948;2023-07-09T14:19:23;1.00;1.00;0.00
64570;PMS5003;61095;52.454;16.948;2023-07-09T14:24:26;0.00;0.00;0.00
64570;PMS5003;61095;52.454;16.948;2023-07-09T14:29:28;0.00;0.00;0.00
64570;PMS5003;61095;52.454;16.948;2023-07-09T14:34:29;0.00;0.00;0.00
64570;PMS5003;61095;52.454;16.948;2023-07-09T14:39:34;0.00;0.00;0.00
64570;PMS5003;61095;52.454;16.948;2023-07-09T14:44:34;0.00;0.00;0.00
64570;PMS5003;61095;52.454;16.948;2023-07-09T14:49:34;1.00;0.00;0.00
64570;PMS5003;61095;52.454;16.948;2023-07-09T14:54:36;0.00;0.00;0.00
64570;PMS5003;61095;52.454;16.948;2023-07-09T14:59:37;0.00;0.00;0.00
64570;PMS5003;61095;52.454;16.948;2023-07-09T15:04:37;1.00;0.00;0.00
64570;PMS5003;61095;52.454;16.948;2023-07-09T15:09:39;2.00;0.00;0.00
64570;PMS5003;61095;52.454;16.948;2023-07-09T15:14:40;1.00;0.00;0.00
64570;PMS5003;61095;52.454;16.948;2023-07-09T15:19:40;0.00;0.00;0.00
64570;PMS5003;61095;52.454;16.948;2023-07-09T15:24:42;2.00;2.00;0.00
64570;PMS5003;61095;52.454;16.948;2023-07-09T15:29:43;1.00;1.00;0.00
64570;PMS5003;61095;52.454;16.948;2023-07-09T15:34:43;1.00;1.00;0.00
64570;PMS5003;61095;52.454;16.948;2023-07-09T15:39:45;1.00;1.00;0.00
64570;PMS5003;61095;52.454;16.948;2023-07-09T15:44:45;0.67;0.67;0.00
64570;PMS5003;61095;52.454;16.948;2023-07-09T15:49:45;2.00;2.00;0.00
64570;PMS5003;61095;52.454;16.948;2023-07-09T15:54:47;1.00;1.00;0.00
64570;PMS5003;61095;52.454;16.948;2023-07-09T15:59:48;0.00;0.00;0.00
64570;PMS5003;61095;52.454;16.948;2023-07-09T16:04:48;0.00;0.00;0.00
64570;PMS5003;61095;52.454;16.948;2023-07-09T16:09:50;0.00;0.00;0.00
64570;PMS5003;61095;52.454;16.948;2023-07-09T16:14:50;0.00;0.00;0.00
64570;PMS5003;61095;52.454;16.948;2023-07-09T16:19:50;0.67;0.67;0.00
64570;PMS5003;61095;52.454;16.948;2023-07-09T16:24:52;0.00;0.00;0.00
64570;PMS5003;61095;52.454;16.948;2023-07-09T16:29:52;1.00;0.00;0.00
64570;PMS5003;61095;52.454;16.948;2023-07-09T16:34:53;1.00;1.00;0.00
64570;PMS5003;61095;52.454;16.948;2023-07-09T16:39:54;1.00;1.00;0.00
64570;PMS5003;61095;52.454;16.948;2023-07-09T16:44:55;0.00;0.00;0.00
64570;PMS5003;61095;52.454;16.948;2023-07-09T16:49:55;0.00;0.00;0.00
64570;PMS5003;61095;52.454;16.948;2023-07-09T16:54:57;0.00;0.00;0.00
64570;PMS5003;61095;52.454;16.948;2023-07-09T17:00:09;0.00;0.00;0.00
64570;PMS5003;61095;52.454;16.948;2023-07-09T17:05:21;1.00;0.00;0.00
64570;PMS5003;61095;52.454;16.948;2023-07-09T17:10:24;0.00;0.00;0.00
64570;PMS5003;61095;52.454;16.948;2023-07-09T17:15:25;0.33;0.33;0.00
64570;PMS5003;61095;52.454;16.948;2023-07-09T17:20:28;0.00;0.00;0.00
64570;PMS5003;61095;52.454;16.948;2023-07-09T17:25:31;0.00;0.00;0.00
64570;PMS5003;61095;52.454;16.948;2023-07-09T17:30:33;0.00;0.00;0.00
64570;PMS5003;61095;52.454;16.948;2023-07-09T17:35:34;0.00;0.00;0.00
64570;PMS5003;61095;52.454;16.948;2023-07-09T17:40:36;0.00;0.00;0.00
64570;PMS5003;61095;52.454;16.948;2023-07-09T17:45:36;0.00;0.00;0.00
64570;PMS5003;61095;52.454;16.948;2023-07-09T17:50:36;0.00;0.00;0.00
64570;PMS5003;61095;52.454;16.948;2023-07-09T17:55:38;0.00;0.00;0.00
64570;PMS5003;61095;52.454;16.948;2023-07-09T18:00:39;0.00;0.00;0.00
64570;PMS5003;61095;52.454;16.948;2023-07-09T18:05:39;0.00;0.00;0.00
64570;PMS5003;61095;52.454;16.948;2023-07-09T18:10:41;0.00;0.00;0.00
64570;PMS5003;61095;52.454;16.948;2023-07-09T18:15:44;0.00;0.00;0.00
64570;PMS5003;61095;52.454;16.948;2023-07-09T18:20:45;0.00;0.00;0.00
64570;PMS5003;61095;52.454;16.948;2023-07-09T18:25:47;0.00;0.00;0.00
64570;PMS5003;61095;52.454;16.948;2023-07-09T18:30:48;0.00;0.00;0.00
64570;PMS5003;61095;52.454;16.948;2023-07-09T18:35:48;0.00;0.00;0.00
64570;PMS5003;61095;52.454;16.948;2023-07-09T18:40:50;0.00;0.00;0.00
64570;PMS5003;61095;52.454;16.948;2023-07-09T18:45:50;3.67;2.67;0.00
64570;PMS5003;61095;52.454;16.948;2023-07-09T18:50:51;3.00;3.00;0.00
64570;PMS5003;61095;52.454;16.948;2023-07-09T18:55:54;5.00;5.00;0.00
64570;PMS5003;61095;52.454;16.948;2023-07-09T19:00:54;6.00;5.67;0.00
64570;PMS5003;61095;52.454;16.948;2023-07-09T19:05:57;1.00;1.00;0.00
64570;PMS5003;61095;52.454;16.948;2023-07-09T19:10:58;0.00;0.00;0.00
64570;PMS5003;61095;52.454;16.948;2023-07-09T19:15:59;0.00;0.00;0.00
64570;PMS5003;61095;52.454;16.948;2023-07-09T19:20:59;0.00;0.00;0.00
64570;PMS5003;61095;52.454;16.948;2023-07-09T19:26:01;1.00;0.00;0.00
64570;PMS5003;61095;52.454;16.948;2023-07-09T19:31:02;0.00;0.00;0.00
64570;PMS5003;61095;52.454;16.948;2023-07-09T19:36:03;0.00;0.00;0.00
64570;PMS5003;61095;52.454;16.948;2023-07-09T19:41:20;0.00;0.00;0.00
64570;PMS5003;61095;52.454;16.948;2023-07-09T19:46:23;1.00;0.00;0.00
64570;PMS5003;61095;52.454;16.948;2023-07-09T19:51:24;3.33;3.33;0.00
64570;PMS5003;61095;52.454;16.948;2023-07-09T19:56:26;2.00;2.00;1.00
64570;PMS5003;61095;52.454;16.948;2023-07-09T20:01:27;2.00;2.00;0.00
64570;PMS5003;61095;52.454;16.948;2023-07-09T20:06:28;0.67;0.00;0.00
64570;PMS5003;61095;52.454;16.948;2023-07-09T20:11:30;0.00;0.00;0.00
64570;PMS5003;61095;52.454;16.948;2023-07-09T20:16:30;1.00;1.00;0.00
64570;PMS5003;61095;52.454;16.948;2023-07-09T20:21:31;2.00;2.00;0.00
64570;PMS5003;61095;52.454;16.948;2023-07-09T20:26:34;2.00;1.00;0.00
64570;PMS5003;61095;52.454;16.948;2023-07-09T20:31:35;0.00;0.00;0.00
64570;PMS5003;61095;52.454;16.948;2023-07-09T20:36:35;2.00;2.00;0.00
64570;PMS5003;61095;52.454;16.948;2023-07-09T20:41:37;3.00;2.00;0.00
64570;PMS5003;61095;52.454;16.948;2023-07-09T20:46:37;3.00;3.00;0.00
64570;PMS5003;61095;52.454;16.948;2023-07-09T20:51:38;3.33;3.33;0.00
64570;PMS5003;61095;52.454;16.948;2023-07-09T20:56:39;3.00;3.00;0.00
64570;PMS5003;61095;52.454;16.948;2023-07-09T21:01:40;2.33;2.33;0.00
64570;PMS5003;61095;52.454;16.948;2023-07-09T21:06:40;4.00;4.00;0.00
64570;PMS5003;61095;52.454;16.948;2023-07-09T21:11:43;4.00;4.00;0.00
64570;PMS5003;61095;52.454;16.948;2023-07-09T21:16:45;2.33;2.33;1.00
64570;PMS5003;61095;52.454;16.948;2023-07-09T21:21:47;4.00;4.00;1.00
64570;PMS5003;61095;52.454;16.948;2023-07-09T21:26:49;3.67;3.67;1.33
64570;PMS5003;61095;52.454;16.948;2023-07-09T21:31:50;3.00;3.00;1.00
64570;PMS5003;61095;52.454;16.948;2023-07-09T21:36:52;3.00;3.00;1.00
64570;PMS5003;61095;52.454;16.948;2023-07-09T21:41:55;3.00;3.00;0.00
64570;PMS5003;61095;52.454;16.948;2023-07-09T21:46:57;3.00;1.67;0.00
64570;PMS5003;61095;52.454;16.948;2023-07-09T21:52:01;4.00;2.00;0.00
64570;PMS5003;61095;52.454;16.948;2023-07-09T21:57:03;2.00;2.00;0.00
